sensor_id;sensor_type;location;lat;lon;timestamp;pressure;altitude;pressure_sealevel;temperature;humidity
80102;BME280;69407;44.966;19.622;2023-12-07T00:00:40;100994.22;;;2.57;100.00
80102;BME280;69407;44.966;19.622;2023-12-07T00:03:06;101002.03;;;2.59;100.00
80102;BME280;69407;44.966;19.622;2023-12-07T00:05:32;100995.13;;;2.52;100.00
80102;BME280;69407;44.966;19.622;2023-12-07T00:07:58;100998.78;;;2.25;100.00
80102;BME280;69407;44.966;19.622;2023-12-07T00:10:23;100996.13;;;2.29;100.00
80102;BME280;69407;44.966;19.622;2023-12-07T00:12:49;101007.22;;;2.62;100.00
80102;BME280;69407;44.966;19.622;2023-12-07T00:15:14;100994.25;;;2.56;100.00
80102;BME280;69407;44.966;19.622;2023-12-07T00:17:40;100996.19;;;2.20;100.00
80102;BME280;69407;44.966;19.622;2023-12-07T00:20:05;101000.41;;;2.40;100.00
80102;BME280;69407;44.966;19.622;2023-12-07T00:22:31;101001.16;;;2.61;100.00
80102;BME280;69407;44.966;19.622;2023-12-07T00:24:56;101006.22;;;2.78;100.00
80102;BME280;69407;44.966;19.622;2023-12-07T00:27:22;101003.72;;;2.69;100.00
80102;BME280;69407;44.966;19.622;2023-12-07T00:29:48;101001.78;;;2.94;100.00
80102;BME280;69407;44.966;19.622;2023-12-07T00:32:13;101001.19;;;2.58;100.00
80102;BME280;69407;44.966;19.622;2023-12-07T00:34:39;101001.00;;;2.83;100.00
80102;BME280;69407;44.966;19.622;2023-12-07T00:37:04;101000.16;;;2.75;100.00
80102;BME280;69407;44.966;19.622;2023-12-07T00:39:30;100995.00;;;2.65;100.00
80102;BME280;69407;44.966;19.622;2023-12-07T00:41:55;101009.88;;;2.57;100.00
80102;BME280;69407;44.966;19.622;2023-12-07T00:44:21;101002.84;;;2.67;100.00
80102;BME280;69407;44.966;19.622;2023-12-07T00:46:46;100999.47;;;2.51;100.00
80102;BME280;69407;44.966;19.622;2023-12-07T00:49:12;101007.19;;;2.65;100.00
80102;BME280;69407;44.966;19.622;2023-12-07T00:51:38;101010.69;;;2.67;100.00
80102;BME280;69407;44.966;19.622;2023-12-07T00:54:03;101009.81;;;2.65;100.00
80102;BME280;69407;44.966;19.622;2023-12-07T00:56:29;101013.41;;;2.47;100.00
80102;BME280;69407;44.966;19.622;2023-12-07T00:58:54;101009.22;;;2.22;100.00
80102;BME280;69407;44.966;19.622;2023-12-07T01:01:20;101007.34;;;2.47;100.00
80102;BME280;69407;44.966;19.622;2023-12-07T01:03:45;101008.28;;;2.35;100.00
80102;BME280;69407;44.966;19.622;2023-12-07T01:06:11;101006.44;;;2.49;100.00
80102;BME280;69407;44.966;19.622;2023-12-07T01:08:37;101004.72;;;2.48;100.00
80102;BME280;69407;44.966;19.622;2023-12-07T01:11:03;101008.19;;;2.50;100.00
80102;BME280;69407;44.966;19.622;2023-12-07T01:13:29;101009.97;;;2.42;100.00
80102;BME280;69407;44.966;19.622;2023-12-07T01:15:55;101000.41;;;2.41;100.00
80102;BME280;69407;44.966;19.622;2023-12-07T01:18:21;101003.88;;;2.45;100.00
80102;BME280;69407;44.966;19.622;2023-12-07T01:20:46;101003.00;;;2.44;100.00
80102;BME280;69407;44.966;19.622;2023-12-07T01:23:13;101002.97;;;2.49;100.00
80102;BME280;69407;44.966;19.622;2023-12-07T01:25:39;101006.41;;;2.52;100.00
80102;BME280;69407;44.966;19.622;2023-12-07T01:28:04;101001.16;;;2.60;100.00
80102;BME280;69407;44.966;19.622;2023-12-07T01:30:30;101005.56;;;2.55;100.00
80102;BME280;69407;44.966;19.622;2023-12-07T01:32:56;101004.69;;;2.51;100.00
80102;BME280;69407;44.966;19.622;2023-12-07T01:35:21;101003.88;;;2.45;100.00
80102;BME280;69407;44.966;19.622;2023-12-07T01:37:46;101008.97;;;2.60;100.00
80102;BME280;69407;44.966;19.622;2023-12-07T01:40:12;101006.50;;;2.43;100.00
80102;BME280;69407;44.966;19.622;2023-12-07T01:42:40;101006.31;;;2.66;100.00
80102;BME280;69407;44.966;19.622;2023-12-07T01:45:06;101007.31;;;2.50;100.00
80102;BME280;69407;44.966;19.622;2023-12-07T01:47:33;101008.03;;;2.72;100.00
80102;BME280;69407;44.966;19.622;2023-12-07T01:50:00;101017.66;;;2.62;100.00
80102;BME280;69407;44.966;19.622;2023-12-07T01:52:27;101007.03;;;2.86;100.00
80102;BME280;69407;44.966;19.622;2023-12-07T01:54:54;101005.44;;;2.70;100.00
80102;BME280;69407;44.966;19.622;2023-12-07T01:57:20;101015.94;;;2.61;100.00
80102;BME280;69407;44.966;19.622;2023-12-07T01:59:46;101009.63;;;2.89;100.00
80102;BME280;69407;44.966;19.622;2023-12-07T02:02:12;101015.88;;;2.65;100.00
80102;BME280;69407;44.966;19.622;2023-12-07T02:04:38;101015.13;;;2.51;100.00
80102;BME280;69407;44.966;19.622;2023-12-07T02:07:04;101015.03;;;2.67;100.00
80102;BME280;69407;44.966;19.622;2023-12-07T02:09:30;101012.41;;;2.68;100.00
80102;BME280;69407;44.966;19.622;2023-12-07T02:11:55;101005.34;;;2.78;100.00
80102;BME280;69407;44.966;19.622;2023-12-07T02:14:21;101004.25;;;3.08;100.00
80102;BME280;69407;44.966;19.622;2023-12-07T02:16:56;101008.16;;;2.52;100.00
80102;BME280;69407;44.966;19.622;2023-12-07T02:21:59;101012.34;;;2.76;100.00
80102;BME280;69407;44.966;19.622;2023-12-07T02:24:27;101010.34;;;3.07;100.00
80102;BME280;69407;44.966;19.622;2023-12-07T02:26:56;101014.16;;;2.68;100.00
80102;BME280;69407;44.966;19.622;2023-12-07T02:29:21;101011.53;;;2.64;100.00
80102;BME280;69407;44.966;19.622;2023-12-07T02:31:47;101014.06;;;2.77;100.00
80102;BME280;69407;44.966;19.622;2023-12-07T02:34:13;101013.19;;;2.78;100.00
80102;BME280;69407;44.966;19.622;2023-12-07T02:36:39;101008.84;;;2.77;100.00
80102;BME280;69407;44.966;19.622;2023-12-07T02:39:06;101015.69;;;2.94;100.00
80102;BME280;69407;44.966;19.622;2023-12-07T02:41:35;101005.34;;;2.81;100.00
80102;BME280;69407;44.966;19.622;2023-12-07T02:44:01;101011.53;;;2.71;100.00
80102;BME280;69407;44.966;19.622;2023-12-07T02:46:27;101020.25;;;2.65;100.00
80102;BME280;69407;44.966;19.622;2023-12-07T02:48:53;101026.31;;;2.65;100.00
80102;BME280;69407;44.966;19.622;2023-12-07T02:51:18;101028.13;;;2.60;100.00
80102;BME280;69407;44.966;19.622;2023-12-07T02:53:44;101026.31;;;2.70;100.00
80102;BME280;69407;44.966;19.622;2023-12-07T02:56:10;101036.69;;;2.78;100.00
80102;BME280;69407;44.966;19.622;2023-12-07T02:58:36;101032.38;;;2.74;100.00
80102;BME280;69407;44.966;19.622;2023-12-07T03:01:01;101035.03;;;2.69;100.00
80102;BME280;69407;44.966;19.622;2023-12-07T03:03:27;101034.00;;;2.91;100.00
80102;BME280;69407;44.966;19.622;2023-12-07T03:05:52;101028.88;;;2.76;100.00
80102;BME280;69407;44.966;19.622;2023-12-07T03:08:18;101030.69;;;2.63;100.00
80102;BME280;69407;44.966;19.622;2023-12-07T03:10:43;101035.91;;;2.63;100.00
80102;BME280;69407;44.966;19.622;2023-12-07T03:13:09;101035.09;;;2.57;100.00
80102;BME280;69407;44.966;19.622;2023-12-07T03:15:34;101038.38;;;2.85;100.00
80102;BME280;69407;44.966;19.622;2023-12-07T03:18:00;101040.13;;;2.83;100.00
80102;BME280;69407;44.966;19.622;2023-12-07T03:20:25;101029.72;;;2.80;100.00
80102;BME280;69407;44.966;19.622;2023-12-07T03:22:51;101042.69;;;2.92;100.00
80102;BME280;69407;44.966;19.622;2023-12-07T03:25:16;101040.16;;;2.81;100.00
80102;BME280;69407;44.966;19.622;2023-12-07T03:27:42;101034.06;;;2.82;100.00
80102;BME280;69407;44.966;19.622;2023-12-07T03:30:08;101035.03;;;2.69;100.00
80102;BME280;69407;44.966;19.622;2023-12-07T03:32:33;101029.81;;;2.69;100.00
80102;BME280;69407;44.966;19.622;2023-12-07T03:34:59;101027.25;;;2.58;100.00
80102;BME280;69407;44.966;19.622;2023-12-07T03:37:24;101029.78;;;2.71;100.00
80102;BME280;69407;44.966;19.622;2023-12-07T03:39:50;101034.16;;;2.69;100.00
80102;BME280;69407;44.966;19.622;2023-12-07T03:42:15;101033.34;;;2.57;100.00
80102;BME280;69407;44.966;19.622;2023-12-07T03:44:42;101040.97;;;2.88;100.00
80102;BME280;69407;44.966;19.622;2023-12-07T03:47:09;101045.38;;;2.78;100.00
80102;BME280;69407;44.966;19.622;2023-12-07T03:49:34;101046.28;;;2.79;100.00
80102;BME280;69407;44.966;19.622;2023-12-07T03:52:00;101047.03;;;2.90;100.00
80102;BME280;69407;44.966;19.622;2023-12-07T03:54:26;101045.34;;;2.84;100.00
80102;BME280;69407;44.966;19.622;2023-12-07T03:56:52;101049.66;;;2.87;100.00
80102;BME280;69407;44.966;19.622;2023-12-07T03:59:17;101050.50;;;2.89;100.00
80102;BME280;69407;44.966;19.622;2023-12-07T04:01:43;101055.81;;;2.78;100.00
80102;BME280;69407;44.966;19.622;2023-12-07T04:04:08;101057.47;;;2.88;100.00
80102;BME280;69407;44.966;19.622;2023-12-07T04:06:34;101055.88;;;2.72;100.00
80102;BME280;69407;44.966;19.622;2023-12-07T04:08:59;101060.06;;;2.90;100.00
80102;BME280;69407;44.966;19.622;2023-12-07T04:11:25;101068.00;;;2.81;100.00
80102;BME280;69407;44.966;19.622;2023-12-07T04:13:50;101067.81;;;3.02;100.00
80102;BME280;69407;44.966;19.622;2023-12-07T04:16:16;101056.59;;;2.94;100.00
80102;BME280;69407;44.966;19.622;2023-12-07T04:18:42;101067.91;;;2.90;100.00
80102;BME280;69407;44.966;19.622;2023-12-07T04:21:07;101060.06;;;2.90;100.00
80102;BME280;69407;44.966;19.622;2023-12-07T04:23:33;101068.78;;;2.92;100.00
80102;BME280;69407;44.966;19.622;2023-12-07T04:25:58;101079.16;;;3.00;100.00
80102;BME280;69407;44.966;19.622;2023-12-07T04:28:24;101081.81;;;2.90;100.00
80102;BME280;69407;44.966;19.622;2023-12-07T04:30:50;101077.41;;;3.00;100.00
80102;BME280;69407;44.966;19.622;2023-12-07T04:33:15;101072.13;;;3.08;100.00
80102;BME280;69407;44.966;19.622;2023-12-07T04:35:41;101080.00;;;3.06;100.00
80102;BME280;69407;44.966;19.622;2023-12-07T04:38:07;101081.91;;;2.83;100.00
80102;BME280;69407;44.966;19.622;2023-12-07T04:40:32;101085.31;;;2.92;100.00
80102;BME280;69407;44.966;19.622;2023-12-07T04:42:57;101095.59;;;3.11;100.00
80102;BME280;69407;44.966;19.622;2023-12-07T04:45:23;101089.50;;;3.13;100.00
80102;BME280;69407;44.966;19.622;2023-12-07T04:47:48;101100.09;;;2.95;100.00
80102;BME280;69407;44.966;19.622;2023-12-07T04:50:14;101095.72;;;2.96;100.00
80102;BME280;69407;44.966;19.622;2023-12-07T04:52:40;101100.09;;;2.90;100.00
80102;BME280;69407;44.966;19.622;2023-12-07T04:55:06;101109.59;;;3.04;100.00
80102;BME280;69407;44.966;19.622;2023-12-07T04:57:33;101113.09;;;2.98;100.00
80102;BME280;69407;44.966;19.622;2023-12-07T04:59:59;101110.53;;;2.90;100.00
80102;BME280;69407;44.966;19.622;2023-12-07T05:02:24;101109.53;;;3.10;100.00
80102;BME280;69407;44.966;19.622;2023-12-07T05:04:50;101112.16;;;3.11;100.00
80102;BME280;69407;44.966;19.622;2023-12-07T05:07:15;101118.41;;;2.86;100.00
80102;BME280;69407;44.966;19.622;2023-12-07T05:09:41;101116.53;;;3.06;100.00
80102;BME280;69407;44.966;19.622;2023-12-07T05:12:06;101133.97;;;3.06;100.00
80102;BME280;69407;44.966;19.622;2023-12-07T05:14:32;101141.81;;;2.98;100.00
80102;BME280;69407;44.966;19.622;2023-12-07T05:16:58;101135.72;;;3.01;100.00
80102;BME280;69407;44.966;19.622;2023-12-07T05:19:24;101147.09;;;2.92;100.00
80102;BME280;69407;44.966;19.622;2023-12-07T05:21:51;101140.09;;;2.96;100.00
80102;BME280;69407;44.966;19.622;2023-12-07T05:24:16;101142.78;;;2.83;100.00
80102;BME280;69407;44.966;19.622;2023-12-07T05:26:42;101145.38;;;2.91;100.00
80102;BME280;69407;44.966;19.622;2023-12-07T05:29:08;101140.13;;;2.94;100.00
80102;BME280;69407;44.966;19.622;2023-12-07T05:31:35;101144.41;;;3.03;100.00
80102;BME280;69407;44.966;19.622;2023-12-07T05:34:01;101142.66;;;3.06;100.00
80102;BME280;69407;44.966;19.622;2023-12-07T05:36:26;101149.63;;;3.06;100.00
80102;BME280;69407;44.966;19.622;2023-12-07T05:38:52;101146.13;;;3.07;100.00
80102;BME280;69407;44.966;19.622;2023-12-07T05:41:17;101151.38;;;3.01;100.00
80102;BME280;69407;44.966;19.622;2023-12-07T05:43:43;101153.84;;;3.23;100.00
80102;BME280;69407;44.966;19.622;2023-12-07T05:46:09;101149.56;;;3.12;100.00
80102;BME280;69407;44.966;19.622;2023-12-07T05:48:34;101150.34;;;3.24;100.00
80102;BME280;69407;44.966;19.622;2023-12-07T05:51:01;101153.97;;;3.02;100.00
80102;BME280;69407;44.966;19.622;2023-12-07T05:53:27;101161.81;;;3.02;100.00
80102;BME280;69407;44.966;19.622;2023-12-07T05:55:53;101161.75;;;3.16;100.00
80102;BME280;69407;44.966;19.622;2023-12-07T05:58:19;101160.84;;;3.20;100.00
80102;BME280;69407;44.966;19.622;2023-12-07T06:00:45;101158.31;;;3.06;100.00
80102;BME280;69407;44.966;19.622;2023-12-07T06:03:15;101167.75;;;3.26;100.00
80102;BME280;69407;44.966;19.622;2023-12-07T06:05:40;101167.78;;;3.22;100.00
80102;BME280;69407;44.966;19.622;2023-12-07T06:08:06;101169.47;;;3.27;100.00
80102;BME280;69407;44.966;19.622;2023-12-07T06:10:32;101175.59;;;3.27;100.00
80102;BME280;69407;44.966;19.622;2023-12-07T06:12:58;101170.34;;;3.26;100.00
80102;BME280;69407;44.966;19.622;2023-12-07T06:15:26;101170.38;;;3.22;100.00
80102;BME280;69407;44.966;19.622;2023-12-07T06:17:52;101177.50;;;2.99;100.00
80102;BME280;69407;44.966;19.622;2023-12-07T06:20:18;101171.25;;;3.28;100.00
80102;BME280;69407;44.966;19.622;2023-12-07T06:22:43;101176.41;;;3.34;100.00
80102;BME280;69407;44.966;19.622;2023-12-07T06:25:09;101170.28;;;3.35;100.00
80102;BME280;69407;44.966;19.622;2023-12-07T06:27:35;101173.88;;;3.23;100.00
80102;BME280;69407;44.966;19.622;2023-12-07T06:30:02;101178.19;;;3.26;100.00
80102;BME280;69407;44.966;19.622;2023-12-07T06:32:31;101177.16;;;3.49;100.00
80102;BME280;69407;44.966;19.622;2023-12-07T06:34:56;101174.66;;;3.36;100.00
80102;BME280;69407;44.966;19.622;2023-12-07T06:37:22;101182.41;;;3.46;100.00
80102;BME280;69407;44.966;19.622;2023-12-07T06:39:47;101175.47;;;3.44;100.00
80102;BME280;69407;44.966;19.622;2023-12-07T06:42:14;101186.78;;;3.43;100.00
80102;BME280;69407;44.966;19.622;2023-12-07T06:44:40;101185.28;;;3.08;100.00
80102;BME280;69407;44.966;19.622;2023-12-07T06:47:06;101193.78;;;3.36;100.00
80102;BME280;69407;44.966;19.622;2023-12-07T06:49:31;101195.50;;;3.39;100.00
80102;BME280;69407;44.966;19.622;2023-12-07T06:51:57;101200.94;;;3.08;100.00
80102;BME280;69407;44.966;19.622;2023-12-07T06:54:22;101209.47;;;3.41;100.00
80102;BME280;69407;44.966;19.622;2023-12-07T06:56:48;101205.94;;;3.45;100.00
80102;BME280;69407;44.966;19.622;2023-12-07T06:59:13;101208.81;;;3.04;100.00
80102;BME280;69407;44.966;19.622;2023-12-07T07:01:39;101206.81;;;3.44;100.00
80102;BME280;69407;44.966;19.622;2023-12-07T07:04:05;101212.06;;;3.38;100.00
80102;BME280;69407;44.966;19.622;2023-12-07T07:06:30;101217.28;;;3.42;100.00
80102;BME280;69407;44.966;19.622;2023-12-07T07:08:56;101216.44;;;3.36;100.00
80102;BME280;69407;44.966;19.622;2023-12-07T07:11:21;101217.03;;;3.71;100.00
80102;BME280;69407;44.966;19.622;2023-12-07T07:13:47;101208.50;;;3.48;100.00
80102;BME280;69407;44.966;19.622;2023-12-07T07:16:12;101209.38;;;3.48;100.00
80102;BME280;69407;44.966;19.622;2023-12-07T07:18:38;101216.16;;;3.77;100.00
80102;BME280;69407;44.966;19.622;2023-12-07T07:21:05;101214.41;;;3.77;100.00
80102;BME280;69407;44.966;19.622;2023-12-07T07:23:30;101207.41;;;3.79;100.00
80102;BME280;69407;44.966;19.622;2023-12-07T07:25:56;101220.38;;;3.87;100.00
80102;BME280;69407;44.966;19.622;2023-12-07T07:28:22;101222.75;;;4.18;100.00
80102;BME280;69407;44.966;19.622;2023-12-07T07:30:47;101213.66;;;4.51;100.00
80102;BME280;69407;44.966;19.622;2023-12-07T07:33:13;101217.66;;;4.02;100.00
80102;BME280;69407;44.966;19.622;2023-12-07T07:35:38;101227.88;;;4.24;100.00
80102;BME280;69407;44.966;19.622;2023-12-07T07:38:04;101223.97;;;3.78;100.00
80102;BME280;69407;44.966;19.622;2023-12-07T07:40:29;101232.47;;;4.03;100.00
80102;BME280;69407;44.966;19.622;2023-12-07T07:42:55;101232.28;;;4.20;100.00
80102;BME280;69407;44.966;19.622;2023-12-07T07:45:20;101220.97;;;4.18;100.00
80102;BME280;69407;44.966;19.622;2023-12-07T07:47:45;101218.47;;;4.07;100.00
80102;BME280;69407;44.966;19.622;2023-12-07T07:50:11;101225.13;;;4.39;100.00
80102;BME280;69407;44.966;19.622;2023-12-07T07:52:37;101211.34;;;4.25;100.00
80102;BME280;69407;44.966;19.622;2023-12-07T07:55:03;101215.31;;;4.58;100.00
80102;BME280;69407;44.966;19.622;2023-12-07T07:57:30;101213.69;;;4.48;100.00
80102;BME280;69407;44.966;19.622;2023-12-07T07:59:58;101215.38;;;4.53;100.00
80102;BME280;69407;44.966;19.622;2023-12-07T08:02:24;101212.91;;;4.41;100.00
80102;BME280;69407;44.966;19.622;2023-12-07T08:04:49;101228.59;;;4.41;100.00
80102;BME280;69407;44.966;19.622;2023-12-07T08:07:17;101224.16;;;4.46;100.00
80102;BME280;69407;44.966;19.622;2023-12-07T08:09:43;101213.94;;;5.00;100.00
80102;BME280;69407;44.966;19.622;2023-12-07T08:12:08;101203.38;;;5.05;100.00
80102;BME280;69407;44.966;19.622;2023-12-07T08:14:37;101216.59;;;4.95;100.00
80102;BME280;69407;44.966;19.622;2023-12-07T08:17:04;101220.22;;;5.48;100.00
80102;BME280;69407;44.966;19.622;2023-12-07T08:19:29;101218.31;;;4.96;100.00
80102;BME280;69407;44.966;19.622;2023-12-07T08:21:55;101221.16;;;4.80;100.00
80102;BME280;69407;44.966;19.622;2023-12-07T08:24:20;101214.19;;;4.79;100.00
80102;BME280;69407;44.966;19.622;2023-12-07T08:26:46;101230.16;;;4.57;100.00
80102;BME280;69407;44.966;19.622;2023-12-07T08:29:11;101224.91;;;4.60;100.00
80102;BME280;69407;44.966;19.622;2023-12-07T08:31:39;101229.34;;;4.52;100.00
80102;BME280;69407;44.966;19.622;2023-12-07T08:34:05;101228.44;;;4.56;100.00
80102;BME280;69407;44.966;19.622;2023-12-07T08:36:30;101229.28;;;4.57;100.00
80102;BME280;69407;44.966;19.622;2023-12-07T08:38:56;101233.66;;;4.56;100.00
80102;BME280;69407;44.966;19.622;2023-12-07T08:41:21;101241.47;;;4.59;100.00
80102;BME280;69407;44.966;19.622;2023-12-07T08:43:47;101245.06;;;4.52;100.00
80102;BME280;69407;44.966;19.622;2023-12-07T08:46:12;101250.09;;;4.69;100.00
80102;BME280;69407;44.966;19.622;2023-12-07T08:48:38;101245.84;;;4.57;100.00
80102;BME280;69407;44.966;19.622;2023-12-07T08:51:04;101239.03;;;4.43;100.00
80102;BME280;69407;44.966;19.622;2023-12-07T08:53:29;101251.41;;;4.28;100.00
80102;BME280;69407;44.966;19.622;2023-12-07T08:55:55;101255.84;;;4.19;100.00
80102;BME280;69407;44.966;19.622;2023-12-07T08:58:20;101258.91;;;4.63;100.00
80102;BME280;69407;44.966;19.622;2023-12-07T09:00:46;101264.25;;;4.51;100.00
80102;BME280;69407;44.966;19.622;2023-12-07T09:03:12;101257.16;;;4.59;100.00
80102;BME280;69407;44.966;19.622;2023-12-07T09:05:38;101262.53;;;4.50;100.00
80102;BME280;69407;44.966;19.622;2023-12-07T09:08:04;101261.78;;;4.37;100.00
80102;BME280;69407;44.966;19.622;2023-12-07T09:10:30;101256.28;;;4.63;100.00
80102;BME280;69407;44.966;19.622;2023-12-07T09:12:55;101253.84;;;4.45;100.00
80102;BME280;69407;44.966;19.622;2023-12-07T09:15:21;101264.41;;;4.37;100.00
80102;BME280;69407;44.966;19.622;2023-12-07T09:17:47;101252.94;;;4.48;100.00
80102;BME280;69407;44.966;19.622;2023-12-07T09:20:14;101258.28;;;4.35;100.00
80102;BME280;69407;44.966;19.622;2023-12-07T09:22:46;101248.81;;;4.27;100.00
80102;BME280;69407;44.966;19.622;2023-12-07T09:25:12;101252.72;;;4.69;100.00
80102;BME280;69407;44.966;19.622;2023-12-07T09:27:39;101250.91;;;4.74;100.00
80102;BME280;69407;44.966;19.622;2023-12-07T09:30:06;101246.00;;;4.45;100.00
80102;BME280;69407;44.966;19.622;2023-12-07T09:32:32;101254.53;;;4.62;100.00
80102;BME280;69407;44.966;19.622;2023-12-07T09:35:06;101246.84;;;4.47;100.00
80102;BME280;69407;44.966;19.622;2023-12-07T09:37:33;101242.59;;;4.38;100.00
80102;BME280;69407;44.966;19.622;2023-12-07T09:39:59;101253.53;;;4.74;100.00
80102;BME280;69407;44.966;19.622;2023-12-07T09:42:24;101243.41;;;4.44;100.00
80102;BME280;69407;44.966;19.622;2023-12-07T09:44:50;101245.88;;;4.56;100.00
80102;BME280;69407;44.966;19.622;2023-12-07T09:47:16;101246.13;;;4.31;100.00
80102;BME280;69407;44.966;19.622;2023-12-07T09:49:41;101252.78;;;4.63;100.00
80102;BME280;69407;44.966;19.622;2023-12-07T09:52:07;101242.44;;;4.52;100.00
80102;BME280;69407;44.966;19.622;2023-12-07T09:54:34;101242.13;;;4.80;100.00
80102;BME280;69407;44.966;19.622;2023-12-07T09:57:01;101247.69;;;4.52;100.00
80102;BME280;69407;44.966;19.622;2023-12-07T09:59:26;101245.34;;;4.25;100.00
80102;BME280;69407;44.966;19.622;2023-12-07T10:01:52;101240.88;;;4.34;100.00
80102;BME280;69407;44.966;19.622;2023-12-07T10:04:22;101243.59;;;4.22;100.00
80102;BME280;69407;44.966;19.622;2023-12-07T10:06:51;101243.34;;;4.47;100.00
80102;BME280;69407;44.966;19.622;2023-12-07T10:09:17;101247.16;;;4.17;100.00
80102;BME280;69407;44.966;19.622;2023-12-07T10:11:44;101239.91;;;4.45;100.00
80102;BME280;69407;44.966;19.622;2023-12-07T10:14:10;101236.13;;;4.70;100.00
80102;BME280;69407;44.966;19.622;2023-12-07T10:16:36;101243.25;;;4.56;100.00
80102;BME280;69407;44.966;19.622;2023-12-07T10:19:23;101236.50;;;4.35;100.00
80102;BME280;69407;44.966;19.622;2023-12-07T10:21:51;101234.00;;;4.23;100.00
80102;BME280;69407;44.966;19.622;2023-12-07T10:24:18;101232.00;;;4.51;100.00
80102;BME280;69407;44.966;19.622;2023-12-07T10:26:45;101232.41;;;4.09;100.00
80102;BME280;69407;44.966;19.622;2023-12-07T10:29:11;101233.00;;;4.37;100.00
80102;BME280;69407;44.966;19.622;2023-12-07T10:31:38;101231.94;;;4.54;100.00
80102;BME280;69407;44.966;19.622;2023-12-07T10:34:04;101228.31;;;4.65;100.00
80102;BME280;69407;44.966;19.622;2023-12-07T10:36:30;101228.19;;;4.78;100.00
80102;BME280;69407;44.966;19.622;2023-12-07T10:38:56;101219.38;;;4.83;100.00
80102;BME280;69407;44.966;19.622;2023-12-07T10:41:23;101213.19;;;4.89;100.00
80102;BME280;69407;44.966;19.622;2023-12-07T10:43:54;101212.34;;;4.88;100.00
80102;BME280;69407;44.966;19.622;2023-12-07T10:46:22;101222.22;;;4.65;100.00
80102;BME280;69407;44.966;19.622;2023-12-07T10:48:54;101224.13;;;4.51;100.00
80102;BME280;69407;44.966;19.622;2023-12-07T10:51:42;101231.41;;;4.24;100.00
80102;BME280;69407;44.966;19.622;2023-12-07T10:54:14;101219.84;;;4.44;100.00
80102;BME280;69407;44.966;19.622;2023-12-07T10:56:46;101222.34;;;4.54;100.00
80102;BME280;69407;44.966;19.622;2023-12-07T10:59:13;101217.19;;;4.50;100.00
80102;BME280;69407;44.966;19.622;2023-12-07T11:01:42;101218.91;;;4.51;100.00
80102;BME280;69407;44.966;19.622;2023-12-07T11:04:12;101226.75;;;4.51;100.00
80102;BME280;69407;44.966;19.622;2023-12-07T11:06:39;101225.09;;;4.42;100.00
80102;BME280;69407;44.966;19.622;2023-12-07T11:09:10;101228.56;;;4.44;100.00
80102;BME280;69407;44.966;19.622;2023-12-07T11:14:16;101228.59;;;4.43;100.00
80102;BME280;69407;44.966;19.622;2023-12-07T11:16:44;101233.75;;;4.49;100.00
80102;BME280;69407;44.966;19.622;2023-12-07T11:22:05;101231.25;;;4.39;100.00
80102;BME280;69407;44.966;19.622;2023-12-07T11:24:31;101233.06;;;4.31;100.00
80102;BME280;69407;44.966;19.622;2023-12-07T11:26:57;101234.88;;;4.26;100.00
80102;BME280;69407;44.966;19.622;2023-12-07T11:29:28;101229.38;;;4.48;100.00
80102;BME280;69407;44.966;19.622;2023-12-07T11:32:00;101233.63;;;4.58;100.00
80102;BME280;69407;44.966;19.622;2023-12-07T11:34:40;101230.13;;;4.59;100.00
80102;BME280;69407;44.966;19.622;2023-12-07T11:37:07;101231.97;;;4.52;100.00
80102;BME280;69407;44.966;19.622;2023-12-07T11:39:42;101230.97;;;4.64;100.00
80102;BME280;69407;44.966;19.622;2023-12-07T11:42:11;101221.47;;;4.54;100.00
80102;BME280;69407;44.966;19.622;2023-12-07T11:44:38;101227.75;;;4.40;100.00
80102;BME280;69407;44.966;19.622;2023-12-07T11:47:04;101220.41;;;4.73;100.00
80102;BME280;69407;44.966;19.622;2023-12-07T11:49:31;101217.03;;;4.62;100.00
80102;BME280;69407;44.966;19.622;2023-12-07T11:51:58;101202.94;;;4.70;100.00
80102;BME280;69407;44.966;19.622;2023-12-07T11:54:24;101202.06;;;4.71;100.00
80102;BME280;69407;44.966;19.622;2023-12-07T11:56:54;101196.97;;;4.62;100.00
80102;BME280;69407;44.966;19.622;2023-12-07T11:59:20;101197.53;;;4.84;100.00
80102;BME280;69407;44.966;19.622;2023-12-07T12:01:47;101195.00;;;4.78;100.00
80102;BME280;69407;44.966;19.622;2023-12-07T12:04:16;101193.75;;;5.05;100.00
80102;BME280;69407;44.966;19.622;2023-12-07T12:06:45;101186.38;;;4.70;100.00
80102;BME280;69407;44.966;19.622;2023-12-07T12:09:14;101192.19;;;4.92;100.00
80102;BME280;69407;44.966;19.622;2023-12-07T12:11:47;101196.03;;;4.65;100.00
80102;BME280;69407;44.966;19.622;2023-12-07T12:14:16;101195.06;;;4.74;100.00
80102;BME280;69407;44.966;19.622;2023-12-07T12:16:43;101195.50;;;4.35;100.00
80102;BME280;69407;44.966;19.622;2023-12-07T12:19:10;101205.59;;;4.67;100.00
80102;BME280;69407;44.966;19.622;2023-12-07T12:21:36;101203.88;;;4.66;100.00
80102;BME280;69407;44.966;19.622;2023-12-07T12:24:07;101201.03;;;4.85;100.00
80102;BME280;69407;44.966;19.622;2023-12-07T12:26:37;101203.06;;;4.63;100.00
80102;BME280;69407;44.966;19.622;2023-12-07T12:29:04;101203.06;;;4.60;100.00
80102;BME280;69407;44.966;19.622;2023-12-07T12:31:30;101205.84;;;4.48;100.00
80102;BME280;69407;44.966;19.622;2023-12-07T12:33:55;101210.91;;;4.60;100.00
80102;BME280;69407;44.966;19.622;2023-12-07T12:36:21;101224.47;;;4.19;100.00
80102;BME280;69407;44.966;19.622;2023-12-07T12:38:52;101222.78;;;4.11;100.00
80102;BME280;69407;44.966;19.622;2023-12-07T12:41:22;101217.25;;;4.42;100.00
80102;BME280;69407;44.966;19.622;2023-12-07T12:43:48;101230.66;;;4.08;100.00